Terminal Aerodrome Forecast
Issued by NWS

Home | Current Version | Previous Version | Text Only | Print | Product List | Glossary Off
Versions: 1 2 3 4 5 6 7 8 9 10 11 12 13 14 15 16 17 18 19 20 21 22 23 24 25 26 27 28 29 30 31 32 33 34 35 36

000
FTUS43 KLOT 272300
TAFMDW
TAF
KMDW 272331Z 2800/2824 32010KT P6SM SCT025 BKN035
      TEMPO 2800/2801 -SN BKN025
     FM280100 29006KT P6SM SCT250
     FM281100 20005KT P6SM OVC050 PROB30 2811/2815 2SM -SN OVC030
     FM281500 18013G21KT P6SM SCT030 BKN080
     FM282200 19011KT P6SM SCT030 BKN080=

USA.gov is the U.S. government's official web portal to all federal, state and local government web resources and services.